Grand Canyon National Park, AZ

3:41 PM MST on September 27, 2016 (GMT -0700)
KAZGRAND3 | | Change Station

Elev 6991 ft 36.05 °N, 112.12 °W | Updated 1 second ago

Scattered Clouds
Scattered Clouds
64.4 °F
Feels Like 64.4 °F
N
0.0
Wind Variable Wind from ENE
Gusts 4.0 mph

Today
High -- | Low -- °F
--% Chance of Precip.
Yesterday
High -- | Low -- °F
Precip. -- in
Pressure 30.06 in
Visibility 10.0 miles
Clouds Few 5000 ft
Scattered Clouds 6500 ft
Scattered Clouds 8000 ft
Dew Point 38 °F
Humidity 38%
Rainfall 0.00 in
Snow Depth Not available.
6:20 AM 6:17 PM
Waning Crescent, 9% visible
METAR KGCN 272154Z 08014KT 10SM FEW050 SCT065 SCT080 19/06 A3027 RMK AO2 SLP180 T01940061
Pressure 30.06 in
Visibility 10.0 miles
Clouds Few 5000 ft
Scattered Clouds 6500 ft
Scattered Clouds 8000 ft
Dew Point 38 °F
Humidity 38%
Rainfall 0.00 in
Snow Depth Not available.
6:20 AM 6:17 PM
Waning Crescent, 9% visible
METAR KGCN 272154Z 08014KT 10SM FEW050 SCT065 SCT080 19/06 A3027 RMK AO2 SLP180 T01940061

10-Day Weather Forecast

Almanac

Astronomy

Sep. 27, 2016 Rise Set
Actual Time
Civil Twilight
Nautical Twilight
Astronomical Twilight
Moon
Length of Visible Light
Length of Day
Tomorrow will be .
, % of the Moon is Illuminated

Today's Extremes

State Highs State Lows

Community

WunderPhotos

Upload Photos

1,942,174 photos uploaded!

WunderBlog® & News

Nearby

Air Quality

  Air Quality AQ Index Pollutant
Not available.

Snow Depth

Station Depth Elevation

Earthquake Activity

City Distance Mag. Time & Date
Minimum magnitude displayed is 2.5.

Coastal Water Temperatures

Place Temperature

Stations

Nearby Weather Stations

Station Location Temp. Windchill Dew Point Humidity Wind Precip. Elev Updated Type
                   

Watches & Warnings

There are currently no watches in effect.